createdAt,value
2023-03-23T00:01:14.088Z,98019.78
2023-03-23T00:06:19.646Z,98010.97
2023-03-23T00:11:27.508Z,98008.31
2023-03-23T00:16:39.414Z,98002.38
2023-03-23T00:21:46.762Z,98005.28
2023-03-23T00:26:55.326Z,97999.94
2023-03-23T00:32:03.150Z,98006.72
2023-03-23T00:37:11.640Z,98003.31
2023-03-23T00:42:20.207Z,98003.63
2023-03-23T00:47:28.308Z,98005.97
2023-03-23T00:52:34.784Z,97996.69
2023-03-23T00:57:39.980Z,97992.81
2023-03-23T01:02:47.686Z,97981.06
2023-03-23T01:07:54.571Z,97979.53
2023-03-23T01:12:59.586Z,97972.88
2023-03-23T01:18:08.256Z,97966.06
2023-03-23T01:23:19.107Z,97954.91
2023-03-23T01:28:24.094Z,97943.78
2023-03-23T01:33:32.729Z,97942.44
2023-03-23T01:38:38.737Z,97939.41
2023-03-23T01:43:59.004Z,97944.16
2023-03-23T01:49:14.030Z,97938.25
2023-03-23T01:54:23.006Z,97937.22
2023-03-23T01:59:29.612Z,97931.44
2023-03-23T02:05:00.278Z,97936.53
2023-03-23T02:10:11.093Z,97934.19
2023-03-23T02:15:18.200Z,97918.84
2023-03-23T02:20:42.255Z,97931.97
2023-03-23T02:26:06.814Z,97919.09
2023-03-23T02:31:31.791Z,97918.31
2023-03-23T02:36:47.802Z,97912.66
2023-03-23T02:41:58.895Z,97919.22
2023-03-23T02:47:07.105Z,97925.75
2023-03-23T02:52:18.868Z,97916.19
2023-03-23T02:57:40.294Z,97913.25
2023-03-23T03:02:53.681Z,97918.25
2023-03-23T03:08:11.014Z,97910.16
2023-03-23T03:13:23.994Z,97910.16
2023-03-23T03:18:34.464Z,97904.81
2023-03-23T03:23:45.459Z,97906.94
2023-03-23T03:28:52.608Z,97896.66
2023-03-23T03:34:02.325Z,97889.69
2023-03-23T03:39:15.026Z,97893.22
2023-03-23T03:44:25.015Z,97891.47
2023-03-23T03:49:31.147Z,97884.66
2023-03-23T03:54:39.024Z,97889.66
2023-03-23T03:59:45.048Z,97874.41
2023-03-23T04:05:17.878Z,97884.13
2023-03-23T04:10:32.714Z,97881.31
2023-03-23T04:15:40.868Z,97882.25
2023-03-23T04:21:09.199Z,97882.25
2023-03-23T04:26:17.093Z,97876.56
2023-03-23T04:31:28.268Z,97870.00
2023-03-23T04:36:56.420Z,97860.75
2023-03-23T04:42:15.058Z,97858.94
2023-03-23T04:47:43.440Z,97857.75
2023-03-23T04:53:00.443Z,97852.44
2023-03-23T04:58:08.901Z,97856.13
2023-03-23T05:03:20.676Z,97866.03
2023-03-23T05:08:40.074Z,97857.69
2023-03-23T05:13:50.482Z,97848.94
2023-03-23T05:18:58.491Z,97852.94
2023-03-23T05:24:09.418Z,97846.03
2023-03-23T05:29:17.943Z,97860.09
2023-03-23T05:34:36.198Z,97853.88
2023-03-23T05:39:43.662Z,97850.53
2023-03-23T05:44:58.515Z,97856.13
2023-03-23T05:50:10.264Z,97861.38
2023-03-23T05:55:16.557Z,97870.34
2023-03-23T06:00:31.600Z,97858.03
2023-03-23T06:05:48.339Z,97853.81
2023-03-23T06:10:56.660Z,97850.53
2023-03-23T06:16:06.143Z,97865.75
2023-03-23T06:21:30.522Z,97878.53
2023-03-23T06:26:45.354Z,97866.19
2023-03-23T06:32:01.878Z,97856.25
2023-03-23T06:37:07.955Z,97854.50
2023-03-23T06:42:36.209Z,97856.16
2023-03-23T06:48:04.071Z,97869.00
2023-03-23T06:53:10.258Z,97867.31
2023-03-23T06:58:25.084Z,97877.47
2023-03-23T07:03:37.809Z,97883.69
2023-03-23T07:08:44.589Z,97881.97
2023-03-23T07:13:55.237Z,97886.06
2023-03-23T07:19:03.257Z,97890.38
2023-03-23T07:24:10.048Z,97884.41
2023-03-23T07:29:40.056Z,97891.22
2023-03-23T07:34:53.846Z,97897.31
2023-03-23T07:40:20.298Z,97906.75
2023-03-23T07:45:30.835Z,97906.69
2023-03-23T07:50:42.126Z,97909.91
2023-03-23T07:55:50.055Z,97911.81
2023-03-23T08:01:16.073Z,97912.59
2023-03-23T08:06:37.471Z,97930.59
2023-03-23T08:12:01.732Z,97929.97
2023-03-23T08:17:45.829Z,97930.53
2023-03-23T08:23:07.585Z,97932.66
2023-03-23T08:28:26.981Z,97932.56
2023-03-23T08:33:51.626Z,97942.47
2023-03-23T08:39:12.186Z,97943.63
2023-03-23T08:44:40.509Z,97944.53
2023-03-23T08:50:19.742Z,97942.19
2023-03-23T08:55:47.058Z,97959.69
2023-03-23T09:01:01.511Z,97957.28
2023-03-23T09:06:27.909Z,97962.88
2023-03-23T09:11:37.610Z,97950.72
2023-03-23T09:16:42.554Z,97957.28
2023-03-23T09:21:48.188Z,97963.00
2023-03-23T09:26:55.982Z,97971.72
2023-03-23T09:32:02.344Z,97978.47
2023-03-23T09:37:08.645Z,97982.25
2023-03-23T09:42:32.057Z,97982.19
2023-03-23T09:47:46.785Z,97986.03
2023-03-23T09:53:02.441Z,97990.16
2023-03-23T09:58:17.340Z,97993.72
2023-03-23T10:03:26.621Z,97987.22
2023-03-23T10:08:37.802Z,97986.31
2023-03-23T10:14:06.119Z,97984.69
2023-03-23T10:19:22.228Z,97967.63
2023-03-23T10:24:39.091Z,97955.19
2023-03-23T10:29:52.490Z,97959.69
2023-03-23T10:35:02.695Z,97984.53
2023-03-23T10:40:20.130Z,97971.13
2023-03-23T10:45:34.038Z,97971.47
2023-03-23T10:50:41.327Z,97961.03
2023-03-23T10:55:50.202Z,97954.09
2023-03-23T11:00:59.765Z,97959.41
2023-03-23T11:06:07.762Z,97956.78
2023-03-23T11:11:20.355Z,97961.47
2023-03-23T11:16:35.587Z,97958.63
2023-03-23T11:21:43.577Z,97970.44
2023-03-23T11:26:58.518Z,97975.00
2023-03-23T11:32:13.555Z,97981.69
2023-03-23T11:37:26.466Z,97992.78
2023-03-23T11:42:44.392Z,97974.22
2023-03-23T11:48:02.272Z,97976.81
2023-03-23T11:53:34.220Z,97999.06
2023-03-23T11:58:42.391Z,97994.94
2023-03-23T12:04:07.637Z,98004.69
2023-03-23T12:09:26.077Z,98001.19
2023-03-23T12:14:42.314Z,97998.75
2023-03-23T12:20:11.605Z,98001.19
2023-03-23T12:25:34.838Z,98013.44
2023-03-23T12:30:51.637Z,98001.34
2023-03-23T12:36:16.930Z,97983.66
2023-03-23T12:41:33.590Z,97983.53
2023-03-23T12:47:05.172Z,97974.78
2023-03-23T12:52:29.546Z,97964.78
2023-03-23T12:57:42.408Z,97973.91
2023-03-23T13:03:02.060Z,97966.75
2023-03-23T13:08:18.316Z,97963.28
2023-03-23T13:13:30.000Z,97979.25
2023-03-23T13:18:45.849Z,97983.72
2023-03-23T13:23:58.648Z,97975.84
2023-03-23T13:29:05.978Z,97970.16
2023-03-23T13:34:21.679Z,97951.69
2023-03-23T13:39:31.932Z,97937.03
2023-03-23T13:44:58.687Z,97913.16
2023-03-23T13:50:06.717Z,97918.31
2023-03-23T13:55:45.254Z,97917.00
2023-03-23T14:00:54.765Z,97922.19
2023-03-23T14:06:11.386Z,97901.56
2023-03-23T14:11:43.351Z,97920.94
2023-03-23T14:16:53.552Z,97909.31
2023-03-23T14:22:00.279Z,97913.91
2023-03-23T14:27:19.545Z,97905.25
2023-03-23T14:32:27.491Z,97911.91
2023-03-23T14:37:37.651Z,97907.72
2023-03-23T14:42:49.665Z,97913.84
2023-03-23T14:47:58.596Z,97925.75
2023-03-23T14:53:23.196Z,97913.84
2023-03-23T14:58:31.669Z,97931.06
2023-03-23T15:03:40.947Z,97917.34
2023-03-23T15:08:47.818Z,97925.66
2023-03-23T15:13:58.971Z,97919.66
2023-03-23T15:19:06.656Z,97936.53
2023-03-23T15:24:28.584Z,97915.69
2023-03-23T15:29:36.715Z,97930.47
2023-03-23T15:34:44.125Z,97940.00
2023-03-23T15:39:50.380Z,97952.69
2023-03-23T15:45:19.357Z,97949.03
2023-03-23T15:50:37.929Z,97944.56
2023-03-23T15:55:43.353Z,97963.84
2023-03-23T16:00:55.138Z,97964.03
2023-03-23T16:06:03.745Z,97965.94
2023-03-23T16:11:09.425Z,97971.59
2023-03-23T16:16:21.440Z,97976.16
2023-03-23T16:21:27.182Z,97963.19
2023-03-23T16:26:33.765Z,97970.16
2023-03-23T16:31:43.625Z,97976.00
2023-03-23T16:36:50.809Z,97997.38
2023-03-23T16:41:56.153Z,97997.28
2023-03-23T16:47:04.181Z,97999.53
2023-03-23T16:52:12.161Z,98004.09
2023-03-23T16:57:20.744Z,97998.06
2023-03-23T17:02:28.634Z,98003.22
2023-03-23T17:07:34.172Z,98001.25
2023-03-23T17:12:39.847Z,98006.97
2023-03-23T17:17:47.961Z,97996.31
2023-03-23T17:22:53.478Z,98025.53
2023-03-23T17:27:58.442Z,98044.38
2023-03-23T17:33:14.876Z,98037.72
2023-03-23T17:38:27.458Z,98048.50
2023-03-23T17:43:35.763Z,98042.97
2023-03-23T17:48:44.264Z,98048.91
2023-03-23T17:53:49.347Z,98035.56
2023-03-23T17:58:55.043Z,98031.00
2023-03-23T18:04:03.806Z,98035.31
2023-03-23T18:09:13.689Z,98055.72
2023-03-23T18:14:18.822Z,98060.28
2023-03-23T18:19:26.834Z,98062.28
2023-03-23T18:24:31.944Z,98068.09
2023-03-23T18:29:39.641Z,98063.41
2023-03-23T18:34:47.634Z,98067.72
2023-03-23T18:39:53.869Z,98065.75
2023-03-23T18:45:00.131Z,98062.09
2023-03-23T18:50:11.944Z,98048.41
2023-03-23T18:55:17.566Z,98055.88
2023-03-23T19:00:24.341Z,98053.22
2023-03-23T19:05:32.596Z,98063.72
2023-03-23T19:10:40.659Z,98066.06
2023-03-23T19:15:46.550Z,98061.50
2023-03-23T19:21:13.758Z,98064.53
2023-03-23T19:26:27.913Z,98053.72
2023-03-23T19:31:33.400Z,98060.19
2023-03-23T19:36:41.800Z,98069.88
2023-03-23T19:41:47.142Z,98050.59
2023-03-23T19:46:54.850Z,98051.59
2023-03-23T19:52:07.251Z,98036.69
2023-03-23T19:57:15.705Z,98044.38
2023-03-23T20:02:24.705Z,98051.38
2023-03-23T20:07:32.603Z,98061.28
2023-03-23T20:12:37.654Z,98055.06
2023-03-23T20:17:44.101Z,98064.53
2023-03-23T20:22:55.178Z,98070.88
2023-03-23T20:28:02.133Z,98058.16
2023-03-23T20:33:09.641Z,98057.28
2023-03-23T20:38:18.590Z,98054.75
2023-03-23T20:43:25.125Z,98061.53
2023-03-23T20:48:32.448Z,98066.84
2023-03-23T20:53:43.090Z,98059.81
2023-03-23T20:58:51.276Z,98061.84
2023-03-23T21:03:58.012Z,98069.53
2023-03-23T21:09:07.013Z,98065.41
2023-03-23T21:14:12.789Z,98054.16
2023-03-23T21:19:19.563Z,98056.72
2023-03-23T21:24:29.538Z,98060.94
2023-03-23T21:29:34.761Z,98037.22
2023-03-23T21:34:43.206Z,98036.13
2023-03-23T21:39:52.095Z,98031.09
2023-03-23T21:45:02.777Z,98033.66
2023-03-23T21:50:12.014Z,98031.88
2023-03-23T21:55:23.701Z,98022.84
2023-03-23T22:00:29.874Z,98016.84
2023-03-23T22:05:38.130Z,98017.41
2023-03-23T22:11:01.146Z,98010.72
2023-03-23T22:16:08.531Z,97997.56
2023-03-23T22:21:14.846Z,97996.78
2023-03-23T22:26:30.217Z,97994.47
2023-03-23T22:31:37.671Z,97986.09
2023-03-23T22:36:43.314Z,97988.88
2023-03-23T22:41:51.235Z,97978.72
2023-03-23T22:46:56.883Z,97976.63
2023-03-23T22:52:02.188Z,97970.03
2023-03-23T22:57:12.076Z,97963.66
2023-03-23T23:02:17.326Z,97964.00
2023-03-23T23:07:22.628Z,97951.84
2023-03-23T23:12:35.463Z,97950.72
2023-03-23T23:17:40.632Z,97941.91
2023-03-23T23:22:47.260Z,97935.94
2023-03-23T23:27:55.866Z,97927.25
2023-03-23T23:33:02.085Z,97918.25
2023-03-23T23:38:07.538Z,97928.75
2023-03-23T23:43:19.852Z,97918.53
2023-03-23T23:48:24.953Z,97917.03
2023-03-23T23:53:33.119Z,97915.84
2023-03-23T23:58:42.009Z,97912.84
